sensor_id;sensor_type;location;lat;lon;timestamp;pressure;altitude;pressure_sealevel;temperature;humidity
5283;BME280;15376;48.540;9.268;2023-09-18T00:00:24;96932.31;;;19.20;100.00
5283;BME280;15376;48.540;9.268;2023-09-18T00:02:50;96894.66;;;18.98;100.00
5283;BME280;15376;48.540;9.268;2023-09-18T00:05:15;96927.47;;;19.17;100.00
5283;BME280;15376;48.540;9.268;2023-09-18T00:07:44;96925.84;;;19.16;100.00
5283;BME280;15376;48.540;9.268;2023-09-18T00:10:11;96913.31;;;19.05;100.00
5283;BME280;15376;48.540;9.268;2023-09-18T00:12:37;96916.50;;;19.02;100.00
5283;BME280;15376;48.540;9.268;2023-09-18T00:15:05;96918.38;;;19.02;100.00
5283;BME280;15376;48.540;9.268;2023-09-18T00:17:30;96906.28;;;19.04;100.00
5283;BME280;15376;48.540;9.268;2023-09-18T00:19:56;96902.72;;;18.98;100.00
5283;BME280;15376;48.540;9.268;2023-09-18T00:22:21;96875.69;;;18.88;100.00
5283;BME280;15376;48.540;9.268;2023-09-18T00:24:47;96882.06;;;18.82;100.00
5283;BME280;15376;48.540;9.268;2023-09-18T00:27:13;96878.81;;;18.80;100.00
5283;BME280;15376;48.540;9.268;2023-09-18T00:29:39;96890.44;;;18.64;100.00
5283;BME280;15376;48.540;9.268;2023-09-18T00:32:05;96882.06;;;18.60;100.00
5283;BME280;15376;48.540;9.268;2023-09-18T00:34:30;96879.13;;;18.62;100.00
5283;BME280;15376;48.540;9.268;2023-09-18T00:36:57;96890.59;;;18.74;100.00
5283;BME280;15376;48.540;9.268;2023-09-18T00:39:24;96896.53;;;18.76;100.00
5283;BME280;15376;48.540;9.268;2023-09-18T00:41:49;96896.41;;;18.66;100.00
5283;BME280;15376;48.540;9.268;2023-09-18T00:44:19;96898.53;;;18.64;100.00
5283;BME280;15376;48.540;9.268;2023-09-18T00:46:44;96876.44;;;18.45;100.00
5283;BME280;15376;48.540;9.268;2023-09-18T00:49:10;96893.94;;;18.48;100.00
5283;BME280;15376;48.540;9.268;2023-09-18T00:51:37;96897.13;;;18.45;100.00
5283;BME280;15376;48.540;9.268;2023-09-18T00:54:03;96894.50;;;18.50;100.00
5283;BME280;15376;48.540;9.268;2023-09-18T00:56:29;96895.66;;;18.54;100.00
5283;BME280;15376;48.540;9.268;2023-09-18T00:58:54;96877.44;;;18.39;100.00
5283;BME280;15376;48.540;9.268;2023-09-18T01:01:20;96887.50;;;18.49;100.00
5283;BME280;15376;48.540;9.268;2023-09-18T01:03:50;96902.16;;;18.58;100.00
5283;BME280;15376;48.540;9.268;2023-09-18T01:06:16;96909.59;;;18.51;100.00
5283;BME280;15376;48.540;9.268;2023-09-18T01:08:43;96919.59;;;18.55;100.00
5283;BME280;15376;48.540;9.268;2023-09-18T01:17:06;96899.34;;;18.86;100.00
5283;BME280;15376;48.540;9.268;2023-09-18T01:22:06;96919.75;;;19.04;100.00
5283;BME280;15376;48.540;9.268;2023-09-18T01:24:33;96904.41;;;19.05;100.00
5283;BME280;15376;48.540;9.268;2023-09-18T01:26:58;96915.81;;;19.12;100.00
5283;BME280;15376;48.540;9.268;2023-09-18T01:29:24;96899.34;;;19.08;100.00
5283;BME280;15376;48.540;9.268;2023-09-18T01:31:49;96902.09;;;19.13;100.00
5283;BME280;15376;48.540;9.268;2023-09-18T01:34:19;96901.78;;;19.10;100.00
5283;BME280;15376;48.540;9.268;2023-09-18T01:36:46;96907.75;;;19.12;100.00
5283;BME280;15376;48.540;9.268;2023-09-18T01:39:11;96907.81;;;19.17;100.00
5283;BME280;15376;48.540;9.268;2023-09-18T01:41:38;96910.50;;;19.17;100.00
5283;BME280;15376;48.540;9.268;2023-09-18T01:44:03;96924.09;;;19.32;100.00
5283;BME280;15376;48.540;9.268;2023-09-18T01:46:30;96924.75;;;19.17;100.00
5283;BME280;15376;48.540;9.268;2023-09-18T01:48:58;96971.34;;;19.18;100.00
5283;BME280;15376;48.540;9.268;2023-09-18T01:51:24;96957.09;;;19.22;100.00
5283;BME280;15376;48.540;9.268;2023-09-18T01:53:51;96905.66;;;19.19;100.00
5283;BME280;15376;48.540;9.268;2023-09-18T01:56:17;96914.91;;;19.28;100.00
5283;BME280;15376;48.540;9.268;2023-09-18T01:58:42;96910.19;;;19.13;100.00
5283;BME280;15376;48.540;9.268;2023-09-18T02:01:07;96926.34;;;19.13;100.00
5283;BME280;15376;48.540;9.268;2023-09-18T02:03:33;96889.28;;;18.98;100.00
5283;BME280;15376;48.540;9.268;2023-09-18T02:05:58;96875.25;;;18.96;100.00
5283;BME280;15376;48.540;9.268;2023-09-18T02:08:23;96897.41;;;19.04;100.00
5283;BME280;15376;48.540;9.268;2023-09-18T02:10:49;96895.16;;;18.95;100.00
5283;BME280;15376;48.540;9.268;2023-09-18T02:13:14;96893.78;;;18.93;100.00
5283;BME280;15376;48.540;9.268;2023-09-18T02:15:39;96894.09;;;18.96;100.00
5283;BME280;15376;48.540;9.268;2023-09-18T02:18:05;96887.00;;;18.90;100.00
5283;BME280;15376;48.540;9.268;2023-09-18T02:20:30;96866.22;;;18.86;100.00
5283;BME280;15376;48.540;9.268;2023-09-18T02:22:55;96858.16;;;18.86;100.00
5283;BME280;15376;48.540;9.268;2023-09-18T02:25:21;96849.78;;;18.82;100.00
5283;BME280;15376;48.540;9.268;2023-09-18T02:27:56;96846.44;;;18.70;100.00
5283;BME280;15376;48.540;9.268;2023-09-18T02:30:22;96840.72;;;18.67;100.00
5283;BME280;15376;48.540;9.268;2023-09-18T02:32:47;96837.53;;;18.70;100.00
5283;BME280;15376;48.540;9.268;2023-09-18T02:35:12;96833.53;;;18.72;100.00
5283;BME280;15376;48.540;9.268;2023-09-18T02:37:38;96805.19;;;18.64;100.00
5283;BME280;15376;48.540;9.268;2023-09-18T02:40:04;96825.72;;;18.71;100.00
5283;BME280;15376;48.540;9.268;2023-09-18T02:42:30;96710.56;;;18.02;100.00
5283;BME280;15376;48.540;9.268;2023-09-18T02:44:55;96814.56;;;18.62;100.00
5283;BME280;15376;48.540;9.268;2023-09-18T02:47:21;96811.41;;;18.48;100.00
5283;BME280;15376;48.540;9.268;2023-09-18T02:49:46;96833.72;;;18.49;100.00
5283;BME280;15376;48.540;9.268;2023-09-18T02:52:12;96852.63;;;18.54;100.00
5283;BME280;15376;48.540;9.268;2023-09-18T02:54:37;96842.38;;;18.51;100.00
5283;BME280;15376;48.540;9.268;2023-09-18T02:57:02;96857.50;;;18.57;100.00
5283;BME280;15376;48.540;9.268;2023-09-18T02:59:28;96864.06;;;18.61;100.00
5283;BME280;15376;48.540;9.268;2023-09-18T03:01:53;96854.59;;;18.42;100.00
5283;BME280;15376;48.540;9.268;2023-09-18T03:04:19;96825.91;;;18.47;100.00
5283;BME280;15376;48.540;9.268;2023-09-18T03:06:44;96848.72;;;18.45;100.00
5283;BME280;15376;48.540;9.268;2023-09-18T03:09:10;96886.63;;;18.43;100.00
5283;BME280;15376;48.540;9.268;2023-09-18T03:11:36;96889.00;;;18.40;100.00
5283;BME280;15376;48.540;9.268;2023-09-18T03:14:01;96874.44;;;18.36;100.00
5283;BME280;15376;48.540;9.268;2023-09-18T03:16:26;96882.44;;;18.30;100.00
5283;BME280;15376;48.540;9.268;2023-09-18T03:18:52;96870.28;;;18.28;100.00
5283;BME280;15376;48.540;9.268;2023-09-18T03:21:17;96871.44;;;18.32;100.00
5283;BME280;15376;48.540;9.268;2023-09-18T03:23:42;96849.94;;;18.15;100.00
5283;BME280;15376;48.540;9.268;2023-09-18T03:26:08;96868.19;;;18.13;100.00
5283;BME280;15376;48.540;9.268;2023-09-18T03:28:33;96856.22;;;18.04;100.00
5283;BME280;15376;48.540;9.268;2023-09-18T03:30:59;96869.00;;;18.14;100.00
5283;BME280;15376;48.540;9.268;2023-09-18T03:33:24;96840.66;;;18.06;100.00
5283;BME280;15376;48.540;9.268;2023-09-18T03:35:51;96890.66;;;18.07;100.00
5283;BME280;15376;48.540;9.268;2023-09-18T03:38:19;96895.38;;;18.00;100.00
5283;BME280;15376;48.540;9.268;2023-09-18T03:40:46;96906.69;;;18.02;100.00
5283;BME280;15376;48.540;9.268;2023-09-18T03:43:11;96877.13;;;18.02;100.00
5283;BME280;15376;48.540;9.268;2023-09-18T03:45:39;96928.63;;;18.27;100.00
5283;BME280;15376;48.540;9.268;2023-09-18T03:48:07;96947.06;;;18.41;100.00
5283;BME280;15376;48.540;9.268;2023-09-18T03:50:33;96964.59;;;18.43;100.00
5283;BME280;15376;48.540;9.268;2023-09-18T03:52:58;96961.16;;;18.48;100.00
5283;BME280;15376;48.540;9.268;2023-09-18T03:55:24;96960.34;;;18.47;100.00
5283;BME280;15376;48.540;9.268;2023-09-18T03:57:50;96942.91;;;18.50;100.00
5283;BME280;15376;48.540;9.268;2023-09-18T04:00:15;96974.22;;;18.56;100.00
5283;BME280;15376;48.540;9.268;2023-09-18T04:02:41;96973.31;;;18.50;100.00
5283;BME280;15376;48.540;9.268;2023-09-18T04:05:07;96987.56;;;18.51;100.00
5283;BME280;15376;48.540;9.268;2023-09-18T04:07:32;96994.66;;;18.57;100.00
5283;BME280;15376;48.540;9.268;2023-09-18T04:09:58;96963.94;;;18.53;100.00
5283;BME280;15376;48.540;9.268;2023-09-18T04:12:23;96970.47;;;18.57;100.00
5283;BME280;15376;48.540;9.268;2023-09-18T04:14:49;96963.22;;;18.57;100.00
5283;BME280;15376;48.540;9.268;2023-09-18T04:17:14;96940.81;;;18.52;100.00
5283;BME280;15376;48.540;9.268;2023-09-18T04:19:40;96936.72;;;18.49;100.00
5283;BME280;15376;48.540;9.268;2023-09-18T04:22:06;96944.13;;;18.59;100.00
5283;BME280;15376;48.540;9.268;2023-09-18T04:24:31;96934.19;;;18.59;100.00
5283;BME280;15376;48.540;9.268;2023-09-18T04:26:56;96920.91;;;18.53;100.00
5283;BME280;15376;48.540;9.268;2023-09-18T04:29:22;96923.22;;;18.61;100.00
5283;BME280;15376;48.540;9.268;2023-09-18T04:31:47;96907.72;;;18.51;100.00
5283;BME280;15376;48.540;9.268;2023-09-18T04:34:13;96903.78;;;18.59;100.00
5283;BME280;15376;48.540;9.268;2023-09-18T04:36:39;96887.50;;;18.49;100.00
5283;BME280;15376;48.540;9.268;2023-09-18T04:39:05;96881.31;;;18.48;100.00
5283;BME280;15376;48.540;9.268;2023-09-18T04:41:31;96895.16;;;18.57;100.00
5283;BME280;15376;48.540;9.268;2023-09-18T04:43:57;96890.44;;;18.47;100.00
5283;BME280;15376;48.540;9.268;2023-09-18T04:46:22;96889.63;;;18.47;100.00
5283;BME280;15376;48.540;9.268;2023-09-18T04:48:49;96885.16;;;18.52;100.00
5283;BME280;15376;48.540;9.268;2023-09-18T04:51:15;96884.91;;;18.54;100.00
5283;BME280;15376;48.540;9.268;2023-09-18T04:53:40;96867.94;;;18.53;100.00
5283;BME280;15376;48.540;9.268;2023-09-18T04:56:06;96876.00;;;18.70;100.00
5283;BME280;15376;48.540;9.268;2023-09-18T04:58:31;96880.81;;;18.68;100.00
5283;BME280;15376;48.540;9.268;2023-09-18T05:00:58;96891.09;;;18.71;100.00
5283;BME280;15376;48.540;9.268;2023-09-18T05:03:25;96886.28;;;18.73;100.00
5283;BME280;15376;48.540;9.268;2023-09-18T05:05:52;96888.97;;;18.73;100.00
5283;BME280;15376;48.540;9.268;2023-09-18T05:08:17;96892.56;;;18.62;100.00
5283;BME280;15376;48.540;9.268;2023-09-18T05:10:42;96893.47;;;18.68;100.00
5283;BME280;15376;48.540;9.268;2023-09-18T05:13:09;96901.34;;;18.74;100.00
5283;BME280;15376;48.540;9.268;2023-09-18T05:15:35;96886.34;;;18.78;100.00
5283;BME280;15376;48.540;9.268;2023-09-18T05:18:00;96884.50;;;18.84;100.00
5283;BME280;15376;48.540;9.268;2023-09-18T05:20:30;96886.44;;;18.88;100.00
5283;BME280;15376;48.540;9.268;2023-09-18T05:22:56;96886.50;;;18.93;100.00
5283;BME280;15376;48.540;9.268;2023-09-18T05:25:24;96893.28;;;18.96;100.00
5283;BME280;15376;48.540;9.268;2023-09-18T05:27:53;96893.53;;;18.94;100.00
5283;BME280;15376;48.540;9.268;2023-09-18T05:30:25;96896.22;;;18.94;100.00
5283;BME280;15376;48.540;9.268;2023-09-18T05:32:54;96904.03;;;18.96;100.00
5283;BME280;15376;48.540;9.268;2023-09-18T05:35:19;96886.44;;;18.88;100.00
5283;BME280;15376;48.540;9.268;2023-09-18T05:37:44;96900.84;;;18.99;100.00
5283;BME280;15376;48.540;9.268;2023-09-18T05:40:11;96877.88;;;18.91;100.00
5283;BME280;15376;48.540;9.268;2023-09-18T05:42:37;96887.31;;;18.94;100.00
5283;BME280;15376;48.540;9.268;2023-09-18T05:45:04;96882.50;;;18.96;100.00
5283;BME280;15376;48.540;9.268;2023-09-18T05:47:33;96899.59;;;19.07;100.00
5283;BME280;15376;48.540;9.268;2023-09-18T05:49:58;96895.84;;;19.08;100.00
5283;BME280;15376;48.540;9.268;2023-09-18T05:52:24;96880.50;;;19.08;100.00
5283;BME280;15376;48.540;9.268;2023-09-18T05:54:50;96887.53;;;19.09;100.00
5283;BME280;15376;48.540;9.268;2023-09-18T05:57:15;96904.69;;;19.30;100.00
5283;BME280;15376;48.540;9.268;2023-09-18T05:59:41;96904.69;;;19.30;100.00
5283;BME280;15376;48.540;9.268;2023-09-18T06:02:10;96898.13;;;19.21;100.00
5283;BME280;15376;48.540;9.268;2023-09-18T06:04:35;96904.44;;;19.31;100.00
5283;BME280;15376;48.540;9.268;2023-09-18T06:07:05;96901.00;;;19.36;100.00
5283;BME280;15376;48.540;9.268;2023-09-18T06:09:30;96889.97;;;19.38;100.00
5283;BME280;15376;48.540;9.268;2023-09-18T06:11:55;96899.88;;;19.54;100.00
5283;BME280;15376;48.540;9.268;2023-09-18T06:14:22;96897.50;;;19.62;100.00
5283;BME280;15376;48.540;9.268;2023-09-18T06:16:48;96894.00;;;19.62;100.00
5283;BME280;15376;48.540;9.268;2023-09-18T06:19:13;96880.28;;;19.58;100.00
5283;BME280;15376;48.540;9.268;2023-09-18T06:21:39;96881.41;;;19.68;100.00
5283;BME280;15376;48.540;9.268;2023-09-18T06:24:05;96896.59;;;19.79;100.00
5283;BME280;15376;48.540;9.268;2023-09-18T06:26:31;96864.06;;;19.53;100.00
5283;BME280;15376;48.540;9.268;2023-09-18T06:28:56;96870.97;;;19.49;100.00
5283;BME280;15376;48.540;9.268;2023-09-18T06:31:22;96873.78;;;19.59;100.00
5283;BME280;15376;48.540;9.268;2023-09-18T06:33:48;96883.50;;;19.60;100.00
5283;BME280;15376;48.540;9.268;2023-09-18T06:36:14;96894.25;;;19.60;100.00
5283;BME280;15376;48.540;9.268;2023-09-18T06:38:39;96886.03;;;19.45;100.00
5283;BME280;15376;48.540;9.268;2023-09-18T06:41:04;96880.06;;;19.43;100.00
5283;BME280;15376;48.540;9.268;2023-09-18T06:43:30;96911.50;;;19.59;100.00
5283;BME280;15376;48.540;9.268;2023-09-18T06:45:55;96910.22;;;19.67;100.00
5283;BME280;15376;48.540;9.268;2023-09-18T06:48:23;96913.47;;;19.69;100.00
5283;BME280;15376;48.540;9.268;2023-09-18T06:50:49;96902.97;;;19.68;100.00
5283;BME280;15376;48.540;9.268;2023-09-18T06:53:14;96907.28;;;19.69;100.00
5283;BME280;15376;48.540;9.268;2023-09-18T06:55:39;96894.81;;;19.57;100.00
5283;BME280;15376;48.540;9.268;2023-09-18T06:58:05;96921.41;;;19.81;100.00
5283;BME280;15376;48.540;9.268;2023-09-18T07:00:30;96927.97;;;19.90;100.00
5283;BME280;15376;48.540;9.268;2023-09-18T07:02:56;96923.22;;;20.02;100.00
5283;BME280;15376;48.540;9.268;2023-09-18T07:05:21;96895.06;;;19.88;100.00
5283;BME280;15376;48.540;9.268;2023-09-18T07:07:46;96925.91;;;20.02;100.00
5283;BME280;15376;48.540;9.268;2023-09-18T07:10:12;96934.91;;;20.13;100.00
5283;BME280;15376;48.540;9.268;2023-09-18T07:12:37;96918.63;;;20.03;100.00
5283;BME280;15376;48.540;9.268;2023-09-18T07:15:03;96930.31;;;20.13;100.00
5283;BME280;15376;48.540;9.268;2023-09-18T07:17:29;96923.34;;;20.17;100.00
5283;BME280;15376;48.540;9.268;2023-09-18T07:19:54;96943.47;;;20.37;100.00
5283;BME280;15376;48.540;9.268;2023-09-18T07:22:19;96950.25;;;20.39;100.00
5283;BME280;15376;48.540;9.268;2023-09-18T07:24:45;96967.31;;;20.50;100.00
5283;BME280;15376;48.540;9.268;2023-09-18T07:27:11;96970.03;;;20.55;100.00
5283;BME280;15376;48.540;9.268;2023-09-18T07:29:36;96972.50;;;20.61;100.00
5283;BME280;15376;48.540;9.268;2023-09-18T07:32:02;96968.75;;;20.62;100.00
5283;BME280;15376;48.540;9.268;2023-09-18T07:34:27;96963.09;;;20.64;100.00
5283;BME280;15376;48.540;9.268;2023-09-18T07:36:53;96952.31;;;20.64;100.00
5283;BME280;15376;48.540;9.268;2023-09-18T07:39:20;96970.41;;;20.69;100.00
5283;BME280;15376;48.540;9.268;2023-09-18T07:41:46;96974.78;;;20.75;100.00
5283;BME280;15376;48.540;9.268;2023-09-18T07:44:18;96977.22;;;20.76;100.00
5283;BME280;15376;48.540;9.268;2023-09-18T07:46:44;96993.72;;;20.85;100.00
5283;BME280;15376;48.540;9.268;2023-09-18T07:49:09;96984.31;;;20.92;100.00
5283;BME280;15376;48.540;9.268;2023-09-18T07:51:34;96999.56;;;21.14;100.00
5283;BME280;15376;48.540;9.268;2023-09-18T07:54:00;97006.94;;;21.28;100.00
5283;BME280;15376;48.540;9.268;2023-09-18T07:56:25;97017.53;;;21.40;100.00
5283;BME280;15376;48.540;9.268;2023-09-18T07:58:50;97025.16;;;21.53;100.00
5283;BME280;15376;48.540;9.268;2023-09-18T08:01:16;97019.78;;;21.58;100.00
5283;BME280;15376;48.540;9.268;2023-09-18T08:03:42;97031.75;;;21.83;100.00
5283;BME280;15376;48.540;9.268;2023-09-18T08:06:07;97035.22;;;21.73;100.00
5283;BME280;15376;48.540;9.268;2023-09-18T08:08:33;97026.28;;;21.68;100.00
5283;BME280;15376;48.540;9.268;2023-09-18T08:11:06;97060.38;;;21.79;100.00
5283;BME280;15376;48.540;9.268;2023-09-18T08:13:33;97064.66;;;21.64;100.00
5283;BME280;15376;48.540;9.268;2023-09-18T08:15:58;97052.69;;;21.45;100.00
5283;BME280;15376;48.540;9.268;2023-09-18T08:18:24;97038.44;;;21.13;100.00
5283;BME280;15376;48.540;9.268;2023-09-18T08:20:52;97080.56;;;21.14;100.00
5283;BME280;15376;48.540;9.268;2023-09-18T08:23:17;97081.56;;;21.03;100.00
5283;BME280;15376;48.540;9.268;2023-09-18T08:25:42;97055.50;;;20.81;100.00
5283;BME280;15376;48.540;9.268;2023-09-18T08:28:08;97084.22;;;20.97;100.00
5283;BME280;15376;48.540;9.268;2023-09-18T08:30:33;97076.69;;;21.00;100.00
5283;BME280;15376;48.540;9.268;2023-09-18T08:32:59;97074.88;;;20.73;100.00
5283;BME280;15376;48.540;9.268;2023-09-18T08:35:24;97082.06;;;20.62;100.00
5283;BME280;15376;48.540;9.268;2023-09-18T08:37:54;97059.44;;;20.37;100.00
5283;BME280;15376;48.540;9.268;2023-09-18T08:40:20;97083.63;;;20.05;100.00
5283;BME280;15376;48.540;9.268;2023-09-18T08:42:47;97112.53;;;19.65;100.00
5283;BME280;15376;48.540;9.268;2023-09-18T08:45:24;97117.09;;;19.26;100.00
5283;BME280;15376;48.540;9.268;2023-09-18T08:47:51;97107.34;;;18.70;100.00
5283;BME280;15376;48.540;9.268;2023-09-18T08:50:17;97119.81;;;18.48;100.00
5283;BME280;15376;48.540;9.268;2023-09-18T08:52:43;97077.31;;;18.16;100.00
5283;BME280;15376;48.540;9.268;2023-09-18T08:55:09;97107.94;;;18.15;100.00
5283;BME280;15376;48.540;9.268;2023-09-18T08:57:35;97096.53;;;18.08;100.00
5283;BME280;15376;48.540;9.268;2023-09-18T09:00:01;97080.22;;;17.98;100.00
5283;BME280;15376;48.540;9.268;2023-09-18T09:02:33;97072.72;;;18.00;100.00
5283;BME280;15376;48.540;9.268;2023-09-18T09:04:58;97067.06;;;17.85;100.00
5283;BME280;15376;48.540;9.268;2023-09-18T09:07:25;97065.53;;;17.89;100.00
5283;BME280;15376;48.540;9.268;2023-09-18T09:09:50;97050.47;;;17.88;100.00
5283;BME280;15376;48.540;9.268;2023-09-18T09:12:16;97048.13;;;17.91;100.00
5283;BME280;15376;48.540;9.268;2023-09-18T09:15:02;97052.25;;;17.82;100.00
5283;BME280;15376;48.540;9.268;2023-09-18T09:17:27;97064.97;;;17.87;100.00
5283;BME280;15376;48.540;9.268;2023-09-18T09:20:08;97081.84;;;17.99;100.00
5283;BME280;15376;48.540;9.268;2023-09-18T09:22:36;97084.47;;;18.11;100.00
5283;BME280;15376;48.540;9.268;2023-09-18T09:25:01;97071.84;;;18.11;100.00
5283;BME280;15376;48.540;9.268;2023-09-18T09:27:27;97068.84;;;18.08;100.00
5283;BME280;15376;48.540;9.268;2023-09-18T09:29:59;97036.59;;;18.08;100.00
5283;BME280;15376;48.540;9.268;2023-09-18T09:32:31;97043.44;;;18.15;100.00
5283;BME280;15376;48.540;9.268;2023-09-18T09:34:57;97034.94;;;18.07;100.00
5283;BME280;15376;48.540;9.268;2023-09-18T09:37:31;97031.88;;;17.98;100.00
5283;BME280;15376;48.540;9.268;2023-09-18T09:39:57;97006.81;;;17.81;100.00
5283;BME280;15376;48.540;9.268;2023-09-18T09:42:38;97001.06;;;17.89;100.00
5283;BME280;15376;48.540;9.268;2023-09-18T09:45:10;96986.88;;;17.77;100.00
5283;BME280;15376;48.540;9.268;2023-09-18T09:47:37;96988.00;;;17.81;100.00
5283;BME280;15376;48.540;9.268;2023-09-18T09:50:11;97046.16;;;17.87;100.00
5283;BME280;15376;48.540;9.268;2023-09-18T09:52:44;97090.44;;;17.84;100.00
5283;BME280;15376;48.540;9.268;2023-09-18T09:55:22;97089.72;;;17.89;100.00
5283;BME280;15376;48.540;9.268;2023-09-18T09:57:57;97103.91;;;18.01;100.00
5283;BME280;15376;48.540;9.268;2023-09-18T10:00:26;97101.22;;;18.01;100.00
5283;BME280;15376;48.540;9.268;2023-09-18T10:02:57;97097.66;;;17.95;100.00
5283;BME280;15376;48.540;9.268;2023-09-18T10:05:26;97082.34;;;17.96;100.00
5283;BME280;15376;48.540;9.268;2023-09-18T10:07:54;97097.19;;;18.15;100.00
5283;BME280;15376;48.540;9.268;2023-09-18T10:10:24;97107.09;;;18.26;100.00
5283;BME280;15376;48.540;9.268;2023-09-18T10:12:52;97104.25;;;18.33;100.00
5283;BME280;15376;48.540;9.268;2023-09-18T10:15:21;97068.22;;;18.17;100.00
5283;BME280;15376;48.540;9.268;2023-09-18T10:17:50;97089.91;;;18.27;100.00
5283;BME280;15376;48.540;9.268;2023-09-18T10:20:17;97079.97;;;18.28;100.00
5283;BME280;15376;48.540;9.268;2023-09-18T10:22:49;97090.88;;;18.21;100.00
5283;BME280;15376;48.540;9.268;2023-09-18T10:25:20;97093.78;;;18.20;100.00
5283;BME280;15376;48.540;9.268;2023-09-18T10:27:49;97101.03;;;18.19;100.00
5283;BME280;15376;48.540;9.268;2023-09-18T10:30:19;97134.34;;;18.18;100.00
5283;BME280;15376;48.540;9.268;2023-09-18T10:32:45;97139.38;;;18.15;100.00
5283;BME280;15376;48.540;9.268;2023-09-18T10:35:11;97122.53;;;18.19;100.00
5283;BME280;15376;48.540;9.268;2023-09-18T10:37:45;97109.19;;;18.24;100.00
5283;BME280;15376;48.540;9.268;2023-09-18T10:40:11;97082.03;;;18.09;100.00
5283;BME280;15376;48.540;9.268;2023-09-18T10:42:41;97103.16;;;18.17;100.00
5283;BME280;15376;48.540;9.268;2023-09-18T10:45:09;97095.00;;;18.12;100.00
5283;BME280;15376;48.540;9.268;2023-09-18T10:47:37;97070.44;;;17.92;100.00
5283;BME280;15376;48.540;9.268;2023-09-18T10:50:03;97082.66;;;17.99;100.00
5283;BME280;15376;48.540;9.268;2023-09-18T10:52:30;97078.28;;;17.82;100.00
5283;BME280;15376;48.540;9.268;2023-09-18T10:54:55;97114.84;;;17.83;100.00
5283;BME280;15376;48.540;9.268;2023-09-18T10:57:21;97115.66;;;17.83;100.00
5283;BME280;15376;48.540;9.268;2023-09-18T10:59:47;97112.53;;;17.75;100.00
5283;BME280;15376;48.540;9.268;2023-09-18T11:02:16;97118.38;;;17.72;100.00
5283;BME280;15376;48.540;9.268;2023-09-18T11:04:43;97110.53;;;17.70;100.00
5283;BME280;15376;48.540;9.268;2023-09-18T11:07:19;97104.84;;;17.66;100.00
5283;BME280;15376;48.540;9.268;2023-09-18T11:09:45;97103.53;;;17.69;100.00
5283;BME280;15376;48.540;9.268;2023-09-18T11:12:11;97120.59;;;17.75;100.00
5283;BME280;15376;48.540;9.268;2023-09-18T11:15:05;97119.41;;;17.71;100.00
5283;BME280;15376;48.540;9.268;2023-09-18T11:20:23;97107.63;;;17.72;100.00
5283;BME280;15376;48.540;9.268;2023-09-18T11:23:18;97113.22;;;17.70;100.00
5283;BME280;15376;48.540;9.268;2023-09-18T11:25:44;97088.81;;;17.60;100.00
5283;BME280;15376;48.540;9.268;2023-09-18T11:28:23;97086.63;;;17.69;100.00
5283;BME280;15376;48.540;9.268;2023-09-18T11:30:56;97082.88;;;17.70;100.00
5283;BME280;15376;48.540;9.268;2023-09-18T11:33:49;97085.41;;;17.88;100.00
5283;BME280;15376;48.540;9.268;2023-09-18T11:38:58;97084.94;;;17.91;100.00
5283;BME280;15376;48.540;9.268;2023-09-18T11:41:30;97083.75;;;17.87;100.00
5283;BME280;15376;48.540;9.268;2023-09-18T11:46:53;97102.44;;;17.93;100.00
5283;BME280;15376;48.540;9.268;2023-09-18T11:49:23;97081.19;;;17.92;100.00
5283;BME280;15376;48.540;9.268;2023-09-18T11:51:51;97054.25;;;17.75;100.00
5283;BME280;15376;48.540;9.268;2023-09-18T11:54:17;97061.69;;;17.85;100.00
5283;BME280;15376;48.540;9.268;2023-09-18T11:56:43;97073.13;;;17.92;100.00
5283;BME280;15376;48.540;9.268;2023-09-18T11:59:09;97080.28;;;18.03;100.00
5283;BME280;15376;48.540;9.268;2023-09-18T12:01:35;97087.78;;;18.01;100.00
5283;BME280;15376;48.540;9.268;2023-09-18T12:04:02;97080.97;;;18.10;100.00
5283;BME280;15376;48.540;9.268;2023-09-18T12:06:33;97071.28;;;18.09;100.00
5283;BME280;15376;48.540;9.268;2023-09-18T12:08:59;97092.50;;;18.22;100.00
5283;BME280;15376;48.540;9.268;2023-09-18T12:11:25;97069.16;;;18.11;100.00
5283;BME280;15376;48.540;9.268;2023-09-18T12:13:51;97079.16;;;18.27;100.00
5283;BME280;15376;48.540;9.268;2023-09-18T12:16:17;97038.06;;;18.15;100.00
5283;BME280;15376;48.540;9.268;2023-09-18T12:18:47;97057.16;;;18.30;100.00
5283;BME280;15376;48.540;9.268;2023-09-18T12:21:14;97050.50;;;18.33;100.00
5283;BME280;15376;48.540;9.268;2023-09-18T12:23:41;97030.59;;;18.34;100.00
5283;BME280;15376;48.540;9.268;2023-09-18T12:26:12;97038.25;;;18.59;100.00
5283;BME280;15376;48.540;9.268;2023-09-18T12:28:39;97044.63;;;18.86;100.00
5283;BME280;15376;48.540;9.268;2023-09-18T12:31:05;97041.84;;;19.15;100.00
5283;BME280;15376;48.540;9.268;2023-09-18T12:33:35;97033.03;;;19.63;100.00
5283;BME280;15376;48.540;9.268;2023-09-18T12:36:05;97033.16;;;20.00;100.00
5283;BME280;15376;48.540;9.268;2023-09-18T12:38:31;97043.97;;;20.27;100.00
5283;BME280;15376;48.540;9.268;2023-09-18T12:40:58;97068.88;;;20.66;100.00
5283;BME280;15376;48.540;9.268;2023-09-18T12:46:01;97061.03;;;20.64;100.00
5283;BME280;15376;48.540;9.268;2023-09-18T12:48:28;97033.56;;;20.41;100.00
5283;BME280;15376;48.540;9.268;2023-09-18T12:50:54;97048.84;;;20.57;100.00
5283;BME280;15376;48.540;9.268;2023-09-18T12:53:22;97038.66;;;20.64;100.00
5283;BME280;15376;48.540;9.268;2023-09-18T12:55:48;97036.84;;;20.80;100.00
5283;BME280;15376;48.540;9.268;2023-09-18T12:58:18;97032.56;;;20.84;100.00
5283;BME280;15376;48.540;9.268;2023-09-18T13:00:48;97051.84;;;20.97;100.00
5283;BME280;15376;48.540;9.268;2023-09-18T13:03:17;97020.13;;;20.78;100.00
5283;BME280;15376;48.540;9.268;2023-09-18T13:05:43;97011.31;;;20.92;100.00
5283;BME280;15376;48.540;9.268;2023-09-18T13:08:09;97022.69;;;21.00;100.00
5283;BME280;15376;48.540;9.268;2023-09-18T13:10:47;97038.03;;;21.31;100.00
5283;BME280;15376;48.540;9.268;2023-09-18T13:13:18;97006.16;;;21.33;100.00
5283;BME280;15376;48.540;9.268;2023-09-18T13:15:45;97014.34;;;21.48;100.00
5283;BME280;15376;48.540;9.268;2023-09-18T13:18:12;97015.94;;;21.44;100.00